Delta Virtual Airport Information Service

Salt Lake City International Airport

ICAO: KSLC Country: United States
Latitude: 40.7884 Longitude: -111.977
Latest Arrival : DAL2546 (B) (KSAN-KSLC) Latest Departure : DAL1173 (1A) (KSLC-KSEA)


WX CaptureLIVE
Data provided by noaa.gov | Fetched at 23:44:58

METAR : KSLC 250354Z 00000KT 10SM FEW080 SCT130 14/04 A3013 RMK AO2 SLP174 T01440039

TAF : KSLC 250307Z 2503/2606 33007KT P6SM FEW100 FM250600 15005KT P6SM SKC FM251800 32008KT P6SM FEW100 FM260400 15005KT P6SM FEW120


Runway Data for KSLC
Data provided by openaviationdata.com

Runway ID Mag Var Hdg Length Elevation Surface ILS Freq ILS Id ILS Slope
14 14 138° 4892 ft 4226 ft Asphalt -- -- --
16L 14 160° 12011 ft 4226 ft Asphalt 109.5 IMOY 3
16R 14 160° 12006 ft 4226 ft Concrete 111.9 IUAT 3
17 14 165° 9602 ft 4226 ft Asphalt 111.5 IBNT 3
32 14 318° 4892 ft 4226 ft Asphalt -- -- --
34L 14 340° 12006 ft 4226 ft Concrete 111.9 IUUH 3
34R 14 340° 12011 ft 4226 ft Asphalt 109.5 ISLC 3
35 14 345° 9602 ft 4226 ft Asphalt 110.1 IUTJ 3

Salt Lake City International Airport, United States
Use only for reference purposes



Not for navigational purposes.